sensor_id;sensor_type;location;lat;lon;timestamp;temperature;humidity
66184;DHT22;52989;48.796;9.806;2022-10-16T00:01:58;14.40;99.90
66184;DHT22;52989;48.796;9.806;2022-10-16T00:04:23;14.60;99.90
66184;DHT22;52989;48.796;9.806;2022-10-16T00:06:49;14.40;99.90
66184;DHT22;52989;48.796;9.806;2022-10-16T00:09:14;14.30;99.90
66184;DHT22;52989;48.796;9.806;2022-10-16T00:11:40;14.40;99.90
66184;DHT22;52989;48.796;9.806;2022-10-16T00:14:07;14.40;99.90
66184;DHT22;52989;48.796;9.806;2022-10-16T00:16:33;14.30;99.90
66184;DHT22;52989;48.796;9.806;2022-10-16T00:18:58;14.20;99.90
66184;DHT22;52989;48.796;9.806;2022-10-16T00:21:25;14.30;99.90
66184;DHT22;52989;48.796;9.806;2022-10-16T00:23:52;14.30;99.90
66184;DHT22;52989;48.796;9.806;2022-10-16T00:26:18;14.40;99.90
66184;DHT22;52989;48.796;9.806;2022-10-16T00:28:49;14.40;99.90
66184;DHT22;52989;48.796;9.806;2022-10-16T00:31:15;14.40;99.90
66184;DHT22;52989;48.796;9.806;2022-10-16T00:33:41;14.40;99.90
66184;DHT22;52989;48.796;9.806;2022-10-16T00:36:08;14.30;99.90
66184;DHT22;52989;48.796;9.806;2022-10-16T00:38:35;14.20;99.90
66184;DHT22;52989;48.796;9.806;2022-10-16T00:41:03;14.20;99.90
66184;DHT22;52989;48.796;9.806;2022-10-16T00:46:00;14.20;99.90
66184;DHT22;52989;48.796;9.806;2022-10-16T00:48:26;14.10;99.90
66184;DHT22;52989;48.796;9.806;2022-10-16T00:50:51;14.30;99.90
66184;DHT22;52989;48.796;9.806;2022-10-16T00:53:17;14.30;99.90
66184;DHT22;52989;48.796;9.806;2022-10-16T00:55:43;14.20;99.90
66184;DHT22;52989;48.796;9.806;2022-10-16T00:58:08;14.10;99.90
66184;DHT22;52989;48.796;9.806;2022-10-16T01:00:35;14.20;99.90
66184;DHT22;52989;48.796;9.806;2022-10-16T01:03:02;14.20;99.90
66184;DHT22;52989;48.796;9.806;2022-10-16T01:05:30;14.10;99.90
66184;DHT22;52989;48.796;9.806;2022-10-16T01:07:59;14.10;99.90
66184;DHT22;52989;48.796;9.806;2022-10-16T01:13:06;14.10;99.90
66184;DHT22;52989;48.796;9.806;2022-10-16T01:15:47;14.10;99.90
66184;DHT22;52989;48.796;9.806;2022-10-16T01:18:21;14.20;99.90
66184;DHT22;52989;48.796;9.806;2022-10-16T01:20:59;14.00;99.90
66184;DHT22;52989;48.796;9.806;2022-10-16T01:28:39;13.90;99.90
66184;DHT22;52989;48.796;9.806;2022-10-16T01:31:07;14.00;99.90
66184;DHT22;52989;48.796;9.806;2022-10-16T01:33:35;13.90;99.90
66184;DHT22;52989;48.796;9.806;2022-10-16T01:36:06;13.80;99.90
66184;DHT22;52989;48.796;9.806;2022-10-16T01:38:34;13.70;99.90
66184;DHT22;52989;48.796;9.806;2022-10-16T01:41:03;13.70;99.90
66184;DHT22;52989;48.796;9.806;2022-10-16T01:43:35;13.80;99.90
66184;DHT22;52989;48.796;9.806;2022-10-16T01:46:02;13.80;99.90
66184;DHT22;52989;48.796;9.806;2022-10-16T01:48:28;13.70;99.90
66184;DHT22;52989;48.796;9.806;2022-10-16T01:50:59;13.60;99.90
66184;DHT22;52989;48.796;9.806;2022-10-16T01:53:26;13.70;99.90
66184;DHT22;52989;48.796;9.806;2022-10-16T01:55:52;13.70;99.90
66184;DHT22;52989;48.796;9.806;2022-10-16T01:58:19;13.80;99.90
66184;DHT22;52989;48.796;9.806;2022-10-16T02:00:45;13.70;99.90
66184;DHT22;52989;48.796;9.806;2022-10-16T02:03:12;13.60;99.90
66184;DHT22;52989;48.796;9.806;2022-10-16T02:05:40;13.60;99.90
66184;DHT22;52989;48.796;9.806;2022-10-16T02:08:06;13.60;99.90
66184;DHT22;52989;48.796;9.806;2022-10-16T02:10:32;13.70;99.90
66184;DHT22;52989;48.796;9.806;2022-10-16T02:13:11;13.80;99.90
66184;DHT22;52989;48.796;9.806;2022-10-16T02:15:38;13.80;99.90
66184;DHT22;52989;48.796;9.806;2022-10-16T02:18:03;13.90;99.90
66184;DHT22;52989;48.796;9.806;2022-10-16T02:20:32;13.70;99.90
66184;DHT22;52989;48.796;9.806;2022-10-16T02:22:59;13.80;99.90
66184;DHT22;52989;48.796;9.806;2022-10-16T02:25:34;13.70;99.90
66184;DHT22;52989;48.796;9.806;2022-10-16T02:28:06;13.70;99.90
66184;DHT22;52989;48.796;9.806;2022-10-16T02:30:34;13.60;99.90
66184;DHT22;52989;48.796;9.806;2022-10-16T02:33:02;13.60;99.90
66184;DHT22;52989;48.796;9.806;2022-10-16T02:35:29;13.70;99.90
66184;DHT22;52989;48.796;9.806;2022-10-16T02:37:55;13.50;99.90
66184;DHT22;52989;48.796;9.806;2022-10-16T02:40:22;13.50;99.90
66184;DHT22;52989;48.796;9.806;2022-10-16T02:42:52;13.50;99.90
66184;DHT22;52989;48.796;9.806;2022-10-16T02:45:18;13.50;99.90
66184;DHT22;52989;48.796;9.806;2022-10-16T02:47:43;13.60;99.90
66184;DHT22;52989;48.796;9.806;2022-10-16T02:50:09;13.70;99.90
66184;DHT22;52989;48.796;9.806;2022-10-16T02:52:34;13.90;99.90
66184;DHT22;52989;48.796;9.806;2022-10-16T02:55:00;13.90;99.90
66184;DHT22;52989;48.796;9.806;2022-10-16T02:57:25;13.90;99.90
66184;DHT22;52989;48.796;9.806;2022-10-16T02:59:51;13.80;99.90
66184;DHT22;52989;48.796;9.806;2022-10-16T03:02:16;13.80;99.90
66184;DHT22;52989;48.796;9.806;2022-10-16T03:04:42;13.90;99.90
66184;DHT22;52989;48.796;9.806;2022-10-16T03:07:07;13.80;99.90
66184;DHT22;52989;48.796;9.806;2022-10-16T03:09:33;13.90;99.90
66184;DHT22;52989;48.796;9.806;2022-10-16T03:11:58;13.80;99.90
66184;DHT22;52989;48.796;9.806;2022-10-16T03:14:24;13.90;99.90
66184;DHT22;52989;48.796;9.806;2022-10-16T03:16:50;13.80;99.90
66184;DHT22;52989;48.796;9.806;2022-10-16T03:19:16;13.90;99.90
66184;DHT22;52989;48.796;9.806;2022-10-16T03:21:41;14.00;99.90
66184;DHT22;52989;48.796;9.806;2022-10-16T03:24:06;14.00;99.90
66184;DHT22;52989;48.796;9.806;2022-10-16T03:26:32;13.90;99.90
66184;DHT22;52989;48.796;9.806;2022-10-16T03:28:57;13.80;99.90
66184;DHT22;52989;48.796;9.806;2022-10-16T03:31:23;13.70;99.90
66184;DHT22;52989;48.796;9.806;2022-10-16T03:33:48;13.70;99.90
66184;DHT22;52989;48.796;9.806;2022-10-16T03:36:14;13.60;99.90
66184;DHT22;52989;48.796;9.806;2022-10-16T03:38:39;13.60;99.90
66184;DHT22;52989;48.796;9.806;2022-10-16T03:41:05;13.60;99.90
66184;DHT22;52989;48.796;9.806;2022-10-16T03:43:33;13.80;99.90
66184;DHT22;52989;48.796;9.806;2022-10-16T03:45:58;13.70;99.90
66184;DHT22;52989;48.796;9.806;2022-10-16T03:48:24;13.70;99.90
66184;DHT22;52989;48.796;9.806;2022-10-16T03:50:49;13.70;99.90
66184;DHT22;52989;48.796;9.806;2022-10-16T03:53:15;13.60;99.90
66184;DHT22;52989;48.796;9.806;2022-10-16T03:55:41;13.80;99.90
66184;DHT22;52989;48.796;9.806;2022-10-16T03:58:07;13.70;99.90
66184;DHT22;52989;48.796;9.806;2022-10-16T04:00:32;13.70;99.90
66184;DHT22;52989;48.796;9.806;2022-10-16T04:02:59;13.60;99.90
66184;DHT22;52989;48.796;9.806;2022-10-16T04:05:25;13.50;99.90
66184;DHT22;52989;48.796;9.806;2022-10-16T04:07:50;13.50;99.90
66184;DHT22;52989;48.796;9.806;2022-10-16T04:10:16;13.50;99.90
66184;DHT22;52989;48.796;9.806;2022-10-16T04:12:41;13.60;99.90
66184;DHT22;52989;48.796;9.806;2022-10-16T04:15:07;13.60;99.90
66184;DHT22;52989;48.796;9.806;2022-10-16T04:17:32;13.60;99.90
66184;DHT22;52989;48.796;9.806;2022-10-16T04:19:58;13.60;99.90
66184;DHT22;52989;48.796;9.806;2022-10-16T04:22:23;13.70;99.90
66184;DHT22;52989;48.796;9.806;2022-10-16T04:24:49;13.80;99.90
66184;DHT22;52989;48.796;9.806;2022-10-16T04:27:14;13.70;99.90
66184;DHT22;52989;48.796;9.806;2022-10-16T04:29:40;13.50;99.90
66184;DHT22;52989;48.796;9.806;2022-10-16T04:32:06;13.40;99.90
66184;DHT22;52989;48.796;9.806;2022-10-16T04:34:32;13.40;99.90
66184;DHT22;52989;48.796;9.806;2022-10-16T04:36:58;13.20;99.90
66184;DHT22;52989;48.796;9.806;2022-10-16T04:39:23;13.20;99.90
66184;DHT22;52989;48.796;9.806;2022-10-16T04:41:49;13.20;99.90
66184;DHT22;52989;48.796;9.806;2022-10-16T04:44:14;13.40;99.90
66184;DHT22;52989;48.796;9.806;2022-10-16T04:46:40;13.60;99.90
66184;DHT22;52989;48.796;9.806;2022-10-16T04:49:05;13.70;99.90
66184;DHT22;52989;48.796;9.806;2022-10-16T04:51:31;13.70;99.90
66184;DHT22;52989;48.796;9.806;2022-10-16T04:53:56;13.60;99.90
66184;DHT22;52989;48.796;9.806;2022-10-16T04:56:22;13.60;99.90
66184;DHT22;52989;48.796;9.806;2022-10-16T04:58:48;13.60;99.90
66184;DHT22;52989;48.796;9.806;2022-10-16T05:01:13;13.60;99.90
66184;DHT22;52989;48.796;9.806;2022-10-16T05:03:39;13.70;99.90
66184;DHT22;52989;48.796;9.806;2022-10-16T05:06:05;13.60;99.90
66184;DHT22;52989;48.796;9.806;2022-10-16T05:08:30;13.60;99.90
66184;DHT22;52989;48.796;9.806;2022-10-16T05:10:56;13.50;99.90
66184;DHT22;52989;48.796;9.806;2022-10-16T05:13:21;13.50;99.90
66184;DHT22;52989;48.796;9.806;2022-10-16T05:15:48;13.50;99.90
66184;DHT22;52989;48.796;9.806;2022-10-16T05:18:14;13.60;99.90
66184;DHT22;52989;48.796;9.806;2022-10-16T05:20:40;13.70;99.90
66184;DHT22;52989;48.796;9.806;2022-10-16T05:23:06;13.70;99.90
66184;DHT22;52989;48.796;9.806;2022-10-16T05:25:31;13.50;99.90
66184;DHT22;52989;48.796;9.806;2022-10-16T05:27:57;13.60;99.90
66184;DHT22;52989;48.796;9.806;2022-10-16T05:30:22;13.50;99.90
66184;DHT22;52989;48.796;9.806;2022-10-16T05:32:48;13.40;99.90
66184;DHT22;52989;48.796;9.806;2022-10-16T05:35:14;13.60;99.90
66184;DHT22;52989;48.796;9.806;2022-10-16T05:37:39;13.50;99.90
66184;DHT22;52989;48.796;9.806;2022-10-16T05:40:05;13.50;99.90
66184;DHT22;52989;48.796;9.806;2022-10-16T05:42:31;13.60;99.90
66184;DHT22;52989;48.796;9.806;2022-10-16T05:44:56;13.50;99.90
66184;DHT22;52989;48.796;9.806;2022-10-16T05:47:22;13.50;99.90
66184;DHT22;52989;48.796;9.806;2022-10-16T05:49:47;13.60;99.90
66184;DHT22;52989;48.796;9.806;2022-10-16T05:52:13;13.40;99.90
66184;DHT22;52989;48.796;9.806;2022-10-16T05:54:38;13.40;99.90
66184;DHT22;52989;48.796;9.806;2022-10-16T05:57:04;13.40;99.90
66184;DHT22;52989;48.796;9.806;2022-10-16T05:59:31;13.50;99.90
66184;DHT22;52989;48.796;9.806;2022-10-16T06:01:56;13.60;99.90
66184;DHT22;52989;48.796;9.806;2022-10-16T06:04:22;13.60;99.90
66184;DHT22;52989;48.796;9.806;2022-10-16T06:06:47;13.60;99.90
66184;DHT22;52989;48.796;9.806;2022-10-16T06:09:13;13.50;99.90
66184;DHT22;52989;48.796;9.806;2022-10-16T06:11:38;13.60;99.90
66184;DHT22;52989;48.796;9.806;2022-10-16T06:14:04;13.50;99.90
66184;DHT22;52989;48.796;9.806;2022-10-16T06:16:35;13.40;99.90
66184;DHT22;52989;48.796;9.806;2022-10-16T06:19:01;13.40;99.90
66184;DHT22;52989;48.796;9.806;2022-10-16T06:21:27;13.40;99.90
66184;DHT22;52989;48.796;9.806;2022-10-16T06:23:56;13.40;99.90
66184;DHT22;52989;48.796;9.806;2022-10-16T06:26:23;13.40;99.90
66184;DHT22;52989;48.796;9.806;2022-10-16T06:28:49;13.40;99.90
66184;DHT22;52989;48.796;9.806;2022-10-16T06:31:16;13.40;99.90
66184;DHT22;52989;48.796;9.806;2022-10-16T06:33:42;13.70;99.90
66184;DHT22;52989;48.796;9.806;2022-10-16T06:36:08;13.70;99.90
66184;DHT22;52989;48.796;9.806;2022-10-16T06:38:35;13.60;99.90
66184;DHT22;52989;48.796;9.806;2022-10-16T06:41:00;13.60;99.90
66184;DHT22;52989;48.796;9.806;2022-10-16T06:43:27;13.70;99.90
66184;DHT22;52989;48.796;9.806;2022-10-16T06:45:54;13.70;99.90
66184;DHT22;52989;48.796;9.806;2022-10-16T06:48:20;13.70;99.90
66184;DHT22;52989;48.796;9.806;2022-10-16T06:51:04;13.70;99.90
66184;DHT22;52989;48.796;9.806;2022-10-16T06:53:31;13.70;99.90
66184;DHT22;52989;48.796;9.806;2022-10-16T06:55:57;14.00;99.90
66184;DHT22;52989;48.796;9.806;2022-10-16T06:58:23;13.80;99.90
66184;DHT22;52989;48.796;9.806;2022-10-16T07:00:48;13.70;99.90
66184;DHT22;52989;48.796;9.806;2022-10-16T07:03:14;13.70;99.90
66184;DHT22;52989;48.796;9.806;2022-10-16T07:05:43;13.70;99.90
66184;DHT22;52989;48.796;9.806;2022-10-16T07:08:09;13.80;99.90
66184;DHT22;52989;48.796;9.806;2022-10-16T07:10:35;13.90;99.90
66184;DHT22;52989;48.796;9.806;2022-10-16T07:13:01;13.90;99.90
66184;DHT22;52989;48.796;9.806;2022-10-16T07:15:27;14.00;99.90
66184;DHT22;52989;48.796;9.806;2022-10-16T07:17:53;14.00;99.90
66184;DHT22;52989;48.796;9.806;2022-10-16T07:20:19;14.30;99.90
66184;DHT22;52989;48.796;9.806;2022-10-16T07:22:44;14.30;99.90
66184;DHT22;52989;48.796;9.806;2022-10-16T07:25:10;14.50;99.90
66184;DHT22;52989;48.796;9.806;2022-10-16T07:27:36;14.50;99.90
66184;DHT22;52989;48.796;9.806;2022-10-16T07:30:03;14.50;99.90
66184;DHT22;52989;48.796;9.806;2022-10-16T07:32:29;14.50;99.90
66184;DHT22;52989;48.796;9.806;2022-10-16T07:34:54;14.70;99.90
66184;DHT22;52989;48.796;9.806;2022-10-16T07:37:21;14.60;99.90
66184;DHT22;52989;48.796;9.806;2022-10-16T07:39:46;14.70;99.90
66184;DHT22;52989;48.796;9.806;2022-10-16T07:42:12;14.90;99.90
66184;DHT22;52989;48.796;9.806;2022-10-16T07:44:38;14.80;99.90
66184;DHT22;52989;48.796;9.806;2022-10-16T07:47:03;14.90;99.90
66184;DHT22;52989;48.796;9.806;2022-10-16T07:49:29;15.10;99.90
66184;DHT22;52989;48.796;9.806;2022-10-16T07:51:54;15.10;99.90
66184;DHT22;52989;48.796;9.806;2022-10-16T07:54:20;15.20;99.90
66184;DHT22;52989;48.796;9.806;2022-10-16T07:56:45;15.30;99.90
66184;DHT22;52989;48.796;9.806;2022-10-16T07:59:11;15.40;99.90
66184;DHT22;52989;48.796;9.806;2022-10-16T08:01:37;15.30;99.90
66184;DHT22;52989;48.796;9.806;2022-10-16T08:04:02;15.40;99.90
66184;DHT22;52989;48.796;9.806;2022-10-16T08:06:28;15.30;99.90
66184;DHT22;52989;48.796;9.806;2022-10-16T08:08:57;15.30;99.90
66184;DHT22;52989;48.796;9.806;2022-10-16T08:11:25;15.40;99.90
66184;DHT22;52989;48.796;9.806;2022-10-16T08:13:51;15.70;99.90
66184;DHT22;52989;48.796;9.806;2022-10-16T08:16:16;15.80;99.90
66184;DHT22;52989;48.796;9.806;2022-10-16T08:18:43;15.80;99.90
66184;DHT22;52989;48.796;9.806;2022-10-16T08:21:13;15.70;99.90
66184;DHT22;52989;48.796;9.806;2022-10-16T08:23:39;15.70;99.90
66184;DHT22;52989;48.796;9.806;2022-10-16T08:26:06;15.80;99.90
66184;DHT22;52989;48.796;9.806;2022-10-16T08:28:32;16.20;99.90
66184;DHT22;52989;48.796;9.806;2022-10-16T08:31:09;16.30;99.90
66184;DHT22;52989;48.796;9.806;2022-10-16T08:33:35;16.00;99.90
66184;DHT22;52989;48.796;9.806;2022-10-16T08:36:02;16.00;99.90
66184;DHT22;52989;48.796;9.806;2022-10-16T08:38:28;15.90;99.90
66184;DHT22;52989;48.796;9.806;2022-10-16T08:41:01;16.00;99.90
66184;DHT22;52989;48.796;9.806;2022-10-16T08:46:42;16.10;99.90
66184;DHT22;52989;48.796;9.806;2022-10-16T08:49:12;16.20;99.90
66184;DHT22;52989;48.796;9.806;2022-10-16T08:51:42;16.30;99.90
66184;DHT22;52989;48.796;9.806;2022-10-16T08:54:41;16.20;99.90
66184;DHT22;52989;48.796;9.806;2022-10-16T08:57:17;16.20;99.90
66184;DHT22;52989;48.796;9.806;2022-10-16T08:59:43;16.40;99.90
66184;DHT22;52989;48.796;9.806;2022-10-16T09:02:27;16.50;99.90
66184;DHT22;52989;48.796;9.806;2022-10-16T09:07:35;16.80;99.90
66184;DHT22;52989;48.796;9.806;2022-10-16T09:15:55;17.00;99.90
66184;DHT22;52989;48.796;9.806;2022-10-16T09:21:18;17.30;99.90
66184;DHT22;52989;48.796;9.806;2022-10-16T09:23:45;17.40;99.90
66184;DHT22;52989;48.796;9.806;2022-10-16T09:26:13;17.50;99.90
66184;DHT22;52989;48.796;9.806;2022-10-16T09:28:39;17.40;99.90
66184;DHT22;52989;48.796;9.806;2022-10-16T09:31:07;17.40;99.90
66184;DHT22;52989;48.796;9.806;2022-10-16T09:33:37;17.20;99.90
66184;DHT22;52989;48.796;9.806;2022-10-16T09:36:05;17.20;99.90
66184;DHT22;52989;48.796;9.806;2022-10-16T09:38:33;17.40;99.90
66184;DHT22;52989;48.796;9.806;2022-10-16T09:41:03;17.30;99.90
66184;DHT22;52989;48.796;9.806;2022-10-16T09:46:42;17.40;99.90
66184;DHT22;52989;48.796;9.806;2022-10-16T09:49:25;17.70;99.90
66184;DHT22;52989;48.796;9.806;2022-10-16T09:52:12;17.80;99.90
66184;DHT22;52989;48.796;9.806;2022-10-16T09:54:55;18.00;99.90
66184;DHT22;52989;48.796;9.806;2022-10-16T09:57:21;18.20;99.90
66184;DHT22;52989;48.796;9.806;2022-10-16T09:59:50;18.10;99.90
66184;DHT22;52989;48.796;9.806;2022-10-16T10:02:18;18.30;99.90
66184;DHT22;52989;48.796;9.806;2022-10-16T10:04:52;18.60;99.90
66184;DHT22;52989;48.796;9.806;2022-10-16T10:07:34;18.60;99.90
66184;DHT22;52989;48.796;9.806;2022-10-16T10:10:03;18.60;99.90
66184;DHT22;52989;48.796;9.806;2022-10-16T10:12:33;18.80;99.90
66184;DHT22;52989;48.796;9.806;2022-10-16T10:15:07;18.90;99.90
66184;DHT22;52989;48.796;9.806;2022-10-16T10:17:46;19.00;99.90
66184;DHT22;52989;48.796;9.806;2022-10-16T10:20:41;19.30;99.90
66184;DHT22;52989;48.796;9.806;2022-10-16T10:23:22;19.40;99.90
66184;DHT22;52989;48.796;9.806;2022-10-16T10:28:50;18.90;99.90
66184;DHT22;52989;48.796;9.806;2022-10-16T10:31:34;19.10;99.90
66184;DHT22;52989;48.796;9.806;2022-10-16T10:34:30;19.10;99.90
66184;DHT22;52989;48.796;9.806;2022-10-16T10:39:51;19.10;99.90
66184;DHT22;52989;48.796;9.806;2022-10-16T10:42:45;19.40;99.90
66184;DHT22;52989;48.796;9.806;2022-10-16T10:50:27;20.10;99.90
66184;DHT22;52989;48.796;9.806;2022-10-16T10:56:04;20.20;99.90
66184;DHT22;52989;48.796;9.806;2022-10-16T11:01:54;20.60;99.90
66184;DHT22;52989;48.796;9.806;2022-10-16T11:07:05;20.70;99.90
66184;DHT22;52989;48.796;9.806;2022-10-16T11:09:41;20.90;99.90
66184;DHT22;52989;48.796;9.806;2022-10-16T11:14:46;20.90;99.90
66184;DHT22;52989;48.796;9.806;2022-10-16T11:17:19;20.80;99.90
66184;DHT22;52989;48.796;9.806;2022-10-16T11:20:13;21.00;99.90
66184;DHT22;52989;48.796;9.806;2022-10-16T11:22:44;21.20;99.90
66184;DHT22;52989;48.796;9.806;2022-10-16T11:25:27;21.30;99.50
66184;DHT22;52989;48.796;9.806;2022-10-16T11:28:16;21.40;95.00
66184;DHT22;52989;48.796;9.806;2022-10-16T11:31:13;20.90;99.90
66184;DHT22;52989;48.796;9.806;2022-10-16T11:33:47;20.70;99.90
66184;DHT22;52989;48.796;9.806;2022-10-16T11:39:11;21.20;97.30
66184;DHT22;52989;48.796;9.806;2022-10-16T11:42:11;21.50;97.50
66184;DHT22;52989;48.796;9.806;2022-10-16T11:47:41;21.30;99.90
66184;DHT22;52989;48.796;9.806;2022-10-16T11:53:16;20.90;99.90
66184;DHT22;52989;48.796;9.806;2022-10-16T11:55:45;21.10;96.90
66184;DHT22;52989;48.796;9.806;2022-10-16T12:08:51;21.40;99.80
66184;DHT22;52989;48.796;9.806;2022-10-16T12:14:19;21.80;95.80
66184;DHT22;52989;48.796;9.806;2022-10-16T12:16:57;21.60;93.50
66184;DHT22;52989;48.796;9.806;2022-10-16T12:19:26;20.90;99.90
66184;DHT22;52989;48.796;9.806;2022-10-16T12:21:59;21.00;98.30
66184;DHT22;52989;48.796;9.806;2022-10-16T12:27:00;21.40;95.00
66184;DHT22;52989;48.796;9.806;2022-10-16T12:29:39;21.50;96.60
66184;DHT22;52989;48.796;9.806;2022-10-16T12:32:23;20.90;97.50
66184;DHT22;52989;48.796;9.806;2022-10-16T12:34:51;21.20;94.30
66184;DHT22;52989;48.796;9.806;2022-10-16T12:37:34;21.40;97.20
66184;DHT22;52989;48.796;9.806;2022-10-16T12:40:31;21.20;97.50
66184;DHT22;52989;48.796;9.806;2022-10-16T12:42:57;20.90;99.00
66184;DHT22;52989;48.796;9.806;2022-10-16T12:45:32;21.00;98.60
66184;DHT22;52989;48.796;9.806;2022-10-16T12:48:01;21.30;96.70
66184;DHT22;52989;48.796;9.806;2022-10-16T12:52:52;22.00;94.20
66184;DHT22;52989;48.796;9.806;2022-10-16T12:55:20;21.70;93.40
66184;DHT22;52989;48.796;9.806;2022-10-16T13:00:44;22.00;90.30
66184;DHT22;52989;48.796;9.806;2022-10-16T13:12:12;21.80;93.90
66184;DHT22;52989;48.796;9.806;2022-10-16T13:28:47;21.30;97.40
66184;DHT22;52989;48.796;9.806;2022-10-16T13:31:19;21.10;97.70
66184;DHT22;52989;48.796;9.806;2022-10-16T13:33:48;20.90;97.50
66184;DHT22;52989;48.796;9.806;2022-10-16T13:36:23;20.90;96.90
66184;DHT22;52989;48.796;9.806;2022-10-16T13:38:58;21.00;96.90
66184;DHT22;52989;48.796;9.806;2022-10-16T13:41:25;20.80;96.20
66184;DHT22;52989;48.796;9.806;2022-10-16T13:43:52;20.70;99.90
66184;DHT22;52989;48.796;9.806;2022-10-16T13:46:23;20.50;99.90
66184;DHT22;52989;48.796;9.806;2022-10-16T13:49:03;20.40;99.90
66184;DHT22;52989;48.796;9.806;2022-10-16T13:51:30;20.80;99.00
66184;DHT22;52989;48.796;9.806;2022-10-16T13:53:56;21.00;99.20
66184;DHT22;52989;48.796;9.806;2022-10-16T13:56:26;21.30;98.60
66184;DHT22;52989;48.796;9.806;2022-10-16T14:01:42;22.30;94.30
66184;DHT22;52989;48.796;9.806;2022-10-16T14:04:11;22.60;91.40
66184;DHT22;52989;48.796;9.806;2022-10-16T14:06:41;23.00;90.80
66184;DHT22;52989;48.796;9.806;2022-10-16T14:09:14;22.90;91.50
66184;DHT22;52989;48.796;9.806;2022-10-16T14:11:50;22.70;91.40
66184;DHT22;52989;48.796;9.806;2022-10-16T14:14:18;22.60;87.20
66184;DHT22;52989;48.796;9.806;2022-10-16T14:16:44;22.40;86.20
66184;DHT22;52989;48.796;9.806;2022-10-16T14:19:21;22.40;85.30
66184;DHT22;52989;48.796;9.806;2022-10-16T14:21:50;22.30;84.40
66184;DHT22;52989;48.796;9.806;2022-10-16T14:24:42;22.10;90.00
66184;DHT22;52989;48.796;9.806;2022-10-16T14:27:40;22.00;91.50
66184;DHT22;52989;48.796;9.806;2022-10-16T14:30:19;21.80;93.10
66184;DHT22;52989;48.796;9.806;2022-10-16T14:32:59;21.80;93.50
66184;DHT22;52989;48.796;9.806;2022-10-16T14:35:32;21.40;93.50
66184;DHT22;52989;48.796;9.806;2022-10-16T14:38:00;21.10;93.80
66184;DHT22;52989;48.796;9.806;2022-10-16T14:40:36;21.00;94.70
66184;DHT22;52989;48.796;9.806;2022-10-16T14:43:03;20.80;96.20
66184;DHT22;52989;48.796;9.806;2022-10-16T14:45:32;20.70;96.50
66184;DHT22;52989;48.796;9.806;2022-10-16T14:48:02;20.70;96.40
66184;DHT22;52989;48.796;9.806;2022-10-16T14:50:29;20.70;96.40
66184;DHT22;52989;48.796;9.806;2022-10-16T14:52:55;20.70;95.60
66184;DHT22;52989;48.796;9.806;2022-10-16T14:55:21;20.80;95.80
66184;DHT22;52989;48.796;9.806;2022-10-16T14:57:47;20.70;97.30
66184;DHT22;52989;48.796;9.806;2022-10-16T15:00:20;20.60;98.20
66184;DHT22;52989;48.796;9.806;2022-10-16T15:02:47;20.60;98.70
66184;DHT22;52989;48.796;9.806;2022-10-16T15:05:25;20.30;99.10
66184;DHT22;52989;48.796;9.806;2022-10-16T15:07:55;20.20;99.90
66184;DHT22;52989;48.796;9.806;2022-10-16T15:10:22;20.30;98.70
66184;DHT22;52989;48.796;9.806;2022-10-16T15:12:48;20.30;98.50
66184;DHT22;52989;48.796;9.806;2022-10-16T15:17:57;19.90;99.90
66184;DHT22;52989;48.796;9.806;2022-10-16T15:20:28;19.80;99.90
66184;DHT22;52989;48.796;9.806;2022-10-16T15:22:54;19.80;99.80
66184;DHT22;52989;48.796;9.806;2022-10-16T15:27:48;19.70;99.90
66184;DHT22;52989;48.796;9.806;2022-10-16T15:30:13;19.60;99.90
66184;DHT22;52989;48.796;9.806;2022-10-16T15:32:39;19.60;99.90
66184;DHT22;52989;48.796;9.806;2022-10-16T15:35:08;19.50;99.90
66184;DHT22;52989;48.796;9.806;2022-10-16T15:37:34;19.30;99.90
66184;DHT22;52989;48.796;9.806;2022-10-16T15:39:59;19.40;99.90
66184;DHT22;52989;48.796;9.806;2022-10-16T15:42:25;19.40;99.90
66184;DHT22;52989;48.796;9.806;2022-10-16T15:44:50;19.40;99.90
66184;DHT22;52989;48.796;9.806;2022-10-16T15:47:16;19.40;99.90
66184;DHT22;52989;48.796;9.806;2022-10-16T15:49:41;19.20;99.90
66184;DHT22;52989;48.796;9.806;2022-10-16T15:52:07;19.10;99.90
66184;DHT22;52989;48.796;9.806;2022-10-16T15:54:34;19.10;99.90
66184;DHT22;52989;48.796;9.806;2022-10-16T15:57:00;19.10;99.90
66184;DHT22;52989;48.796;9.806;2022-10-16T15:59:25;19.00;99.90
66184;DHT22;52989;48.796;9.806;2022-10-16T16:01:51;19.00;99.90
66184;DHT22;52989;48.796;9.806;2022-10-16T16:04:16;19.00;99.90
66184;DHT22;52989;48.796;9.806;2022-10-16T16:06:42;19.00;99.90
66184;DHT22;52989;48.796;9.806;2022-10-16T16:09:11;19.10;99.90
66184;DHT22;52989;48.796;9.806;2022-10-16T16:11:37;19.10;99.90
66184;DHT22;52989;48.796;9.806;2022-10-16T16:14:07;18.90;99.90
66184;DHT22;52989;48.796;9.806;2022-10-16T16:16:35;18.80;99.90
66184;DHT22;52989;48.796;9.806;2022-10-16T16:19:04;18.70;99.90
66184;DHT22;52989;48.796;9.806;2022-10-16T16:21:31;18.80;99.90
66184;DHT22;52989;48.796;9.806;2022-10-16T16:23:57;18.60;99.90
66184;DHT22;52989;48.796;9.806;2022-10-16T16:26:27;18.50;99.90
66184;DHT22;52989;48.796;9.806;2022-10-16T16:28:54;18.40;99.90
66184;DHT22;52989;48.796;9.806;2022-10-16T16:31:24;18.30;99.90
66184;DHT22;52989;48.796;9.806;2022-10-16T16:33:50;18.40;99.90
66184;DHT22;52989;48.796;9.806;2022-10-16T16:36:17;18.20;99.90
66184;DHT22;52989;48.796;9.806;2022-10-16T16:38:44;18.20;99.90
66184;DHT22;52989;48.796;9.806;2022-10-16T16:41:19;18.20;99.90
66184;DHT22;52989;48.796;9.806;2022-10-16T16:43:45;18.10;99.90
66184;DHT22;52989;48.796;9.806;2022-10-16T16:46:13;18.10;99.90
66184;DHT22;52989;48.796;9.806;2022-10-16T16:48:39;18.20;99.90
66184;DHT22;52989;48.796;9.806;2022-10-16T16:51:07;18.30;99.90
66184;DHT22;52989;48.796;9.806;2022-10-16T16:53:34;18.20;99.90
66184;DHT22;52989;48.796;9.806;2022-10-16T16:56:03;18.10;99.90
66184;DHT22;52989;48.796;9.806;2022-10-16T16:58:29;18.00;99.90
66184;DHT22;52989;48.796;9.806;2022-10-16T17:00:55;18.10;99.90
66184;DHT22;52989;48.796;9.806;2022-10-16T17:03:21;18.00;99.90
66184;DHT22;52989;48.796;9.806;2022-10-16T17:06:03;17.80;99.90
66184;DHT22;52989;48.796;9.806;2022-10-16T17:08:30;17.80;99.90
66184;DHT22;52989;48.796;9.806;2022-10-16T17:10:56;17.80;99.90
66184;DHT22;52989;48.796;9.806;2022-10-16T17:13:32;17.70;99.90
66184;DHT22;52989;48.796;9.806;2022-10-16T17:16:04;17.50;99.90
66184;DHT22;52989;48.796;9.806;2022-10-16T17:18:31;17.40;99.90
66184;DHT22;52989;48.796;9.806;2022-10-16T17:21:01;17.40;99.90
66184;DHT22;52989;48.796;9.806;2022-10-16T17:23:26;17.40;99.90
66184;DHT22;52989;48.796;9.806;2022-10-16T17:25:53;17.40;99.90
66184;DHT22;52989;48.796;9.806;2022-10-16T17:28:18;17.20;99.90
66184;DHT22;52989;48.796;9.806;2022-10-16T17:30:44;17.10;99.90
66184;DHT22;52989;48.796;9.806;2022-10-16T17:33:11;17.20;99.90